createdAt,value
2023-11-27T00:02:36.037Z,5.15
2023-11-27T00:05:42.011Z,5.33
2023-11-27T00:08:45.988Z,4.15
2023-11-27T00:11:50.503Z,5.07
2023-11-27T00:14:53.989Z,4.67
2023-11-27T00:17:58.626Z,5.22
2023-11-27T00:21:03.998Z,5.13
2023-11-27T00:24:08.350Z,5.07
2023-11-27T00:27:12.470Z,4.10
2023-11-27T00:30:17.262Z,5.38
2023-11-27T00:33:21.677Z,4.82
2023-11-27T00:36:27.503Z,4.93
2023-11-27T00:39:30.899Z,5.63
2023-11-27T00:42:35.018Z,4.38
2023-11-27T00:45:38.622Z,4.70
2023-11-27T00:48:42.906Z,4.47
2023-11-27T00:51:47.982Z,4.20
2023-11-27T00:54:51.928Z,4.35
2023-11-27T00:57:55.532Z,2.92
2023-11-27T01:00:59.367Z,4.63
2023-11-27T01:04:02.834Z,4.32
2023-11-27T01:07:08.697Z,4.73
2023-11-27T01:10:13.384Z,4.57
2023-11-27T01:13:17.238Z,3.53
2023-11-27T01:16:20.864Z,5.07
2023-11-27T01:19:24.982Z,4.35
2023-11-27T01:22:29.874Z,5.05
2023-11-27T01:25:33.708Z,4.72
2023-11-27T01:28:37.511Z,5.10
2023-11-27T01:31:42.254Z,4.25
2023-11-27T01:34:45.817Z,5.00
2023-11-27T01:37:50.988Z,5.43
2023-11-27T01:40:54.548Z,4.82
2023-11-27T01:43:58.408Z,4.80
2023-11-27T01:47:02.184Z,5.20
2023-11-27T01:50:08.138Z,5.43
2023-11-27T01:53:13.130Z,6.00
2023-11-27T01:56:18.105Z,5.53
2023-11-27T01:59:24.609Z,5.30
2023-11-27T02:02:28.741Z,6.20
2023-11-27T02:05:32.915Z,6.40
2023-11-27T02:08:38.532Z,5.17
2023-11-27T02:11:46.159Z,6.57
2023-11-27T02:14:51.700Z,6.07
2023-11-27T02:17:55.804Z,6.43
2023-11-27T02:21:03.192Z,6.32
2023-11-27T02:24:08.665Z,6.32
2023-11-27T02:27:12.612Z,7.10
2023-11-27T02:30:17.246Z,6.88
2023-11-27T02:33:21.116Z,6.40
2023-11-27T02:36:26.827Z,7.05
2023-11-27T02:39:32.089Z,6.90
2023-11-27T02:42:35.912Z,6.72
2023-11-27T02:45:39.955Z,6.82
2023-11-27T02:48:44.459Z,6.53
2023-11-27T02:51:49.940Z,5.22
2023-11-27T02:54:57.139Z,5.07
2023-11-27T02:58:00.979Z,5.60
2023-11-27T03:01:04.735Z,4.45
2023-11-27T03:04:10.033Z,5.15
2023-11-27T03:07:14.345Z,4.95
2023-11-27T03:10:19.905Z,4.07
2023-11-27T03:13:23.499Z,4.93
2023-11-27T03:16:27.450Z,4.70
2023-11-27T03:19:37.709Z,4.80
2023-11-27T03:22:49.188Z,4.63
2023-11-27T03:25:54.207Z,3.88
2023-11-27T03:28:58.025Z,4.30
2023-11-27T03:32:01.595Z,4.72
2023-11-27T03:35:06.867Z,4.97
2023-11-27T03:38:10.525Z,4.95
2023-11-27T03:41:22.154Z,3.60
2023-11-27T03:44:26.165Z,4.88
2023-11-27T03:47:30.252Z,4.45
2023-11-27T03:50:34.338Z,4.23
2023-11-27T03:53:38.283Z,4.63
2023-11-27T03:56:44.661Z,4.43
2023-11-27T03:59:49.247Z,4.63
2023-11-27T04:02:52.831Z,4.72
2023-11-27T04:05:56.573Z,4.35
2023-11-27T04:09:00.452Z,5.05
2023-11-27T04:12:06.364Z,4.07
2023-11-27T04:15:10.252Z,5.53
2023-11-27T04:18:14.129Z,5.35
2023-11-27T04:21:19.411Z,5.30
2023-11-27T04:24:25.121Z,4.50
2023-11-27T04:27:30.138Z,4.68
2023-11-27T04:30:34.012Z,5.05
2023-11-27T04:33:37.830Z,4.72
2023-11-27T04:36:41.560Z,4.85
2023-11-27T04:39:45.208Z,4.57
2023-11-27T04:42:50.540Z,5.57
2023-11-27T04:45:54.144Z,5.07
2023-11-27T04:48:58.423Z,5.43
2023-11-27T04:52:02.057Z,5.60
2023-11-27T04:55:08.820Z,5.57
2023-11-27T04:58:13.892Z,5.75
2023-11-27T05:01:17.723Z,5.55
2023-11-27T05:04:21.355Z,6.82
2023-11-27T05:07:25.380Z,6.82
2023-11-27T05:10:29.437Z,6.65
2023-11-27T05:13:35.239Z,6.10
2023-11-27T05:16:38.754Z,5.70
2023-11-27T05:19:42.536Z,5.85
2023-11-27T05:22:46.105Z,5.57
2023-11-27T05:25:49.909Z,5.72
2023-11-27T05:28:55.253Z,6.05
2023-11-27T05:31:59.083Z,5.82
2023-11-27T05:35:02.886Z,5.00
2023-11-27T05:38:06.955Z,6.28
2023-11-27T05:41:13.555Z,5.57
2023-11-27T05:44:21.090Z,6.53
2023-11-27T05:47:24.646Z,6.13
2023-11-27T05:50:28.886Z,6.28
2023-11-27T05:53:33.072Z,6.50
2023-11-27T05:56:36.989Z,6.22
2023-11-27T05:59:41.864Z,7.03
2023-11-27T06:02:45.797Z,5.88
2023-11-27T06:05:49.414Z,6.07
2023-11-27T06:08:53.232Z,4.95
2023-11-27T06:11:56.814Z,6.07
2023-11-27T06:15:02.356Z,5.73
2023-11-27T06:18:06.227Z,4.68
2023-11-27T06:21:13.234Z,5.50
2023-11-27T06:24:16.844Z,4.83
2023-11-27T06:27:20.585Z,5.38
2023-11-27T06:30:25.471Z,5.88
2023-11-27T06:33:30.029Z,5.95
2023-11-27T06:36:33.993Z,6.30
2023-11-27T06:39:37.723Z,6.38
2023-11-27T06:42:41.307Z,7.43
2023-11-27T06:45:48.921Z,6.97
2023-11-27T06:48:52.800Z,5.97
2023-11-27T06:51:56.576Z,7.22
2023-11-27T06:55:01.205Z,6.23
2023-11-27T06:58:05.714Z,3.42
2023-11-27T07:01:13.605Z,5.88
2023-11-27T07:04:18.117Z,5.97
2023-11-27T07:07:22.873Z,7.07
2023-11-27T07:10:26.741Z,6.07
2023-11-27T07:13:30.291Z,4.97
2023-11-27T07:16:35.721Z,6.47
2023-11-27T07:19:40.943Z,5.90
2023-11-27T07:22:44.661Z,5.78
2023-11-27T07:25:48.240Z,6.40
2023-11-27T07:28:52.152Z,6.00
2023-11-27T07:31:57.256Z,6.22
2023-11-27T07:35:01.164Z,6.75
2023-11-27T07:38:04.837Z,6.22
2023-11-27T07:41:09.422Z,6.47
2023-11-27T07:44:13.620Z,5.43
2023-11-27T07:47:19.074Z,6.20
2023-11-27T07:50:22.845Z,5.40
2023-11-27T07:53:28.227Z,5.95
2023-11-27T07:56:34.011Z,6.10
2023-11-27T07:59:37.959Z,5.13
2023-11-27T08:02:44.049Z,6.90
2023-11-27T08:05:48.829Z,4.82
2023-11-27T08:08:52.281Z,5.45
2023-11-27T08:11:56.032Z,5.43
2023-11-27T08:14:59.645Z,5.95
2023-11-27T08:18:06.171Z,4.13
2023-11-27T08:21:11.867Z,5.72
2023-11-27T08:24:15.973Z,6.00
2023-11-27T08:27:22.039Z,6.50
2023-11-27T08:30:28.890Z,6.28
2023-11-27T08:33:34.448Z,6.13
2023-11-27T08:36:39.739Z,5.80
2023-11-27T08:39:44.138Z,3.90
2023-11-27T08:42:47.941Z,5.00
2023-11-27T08:45:51.704Z,3.63
2023-11-27T08:48:58.282Z,3.30
2023-11-27T08:52:02.152Z,4.57
2023-11-27T08:55:09.374Z,4.50
2023-11-27T08:58:13.085Z,5.33
2023-11-27T09:01:18.145Z,4.25
2023-11-27T09:04:23.722Z,3.40
2023-11-27T09:07:27.530Z,4.10
2023-11-27T09:10:31.131Z,4.55
2023-11-27T09:13:35.008Z,3.13
2023-11-27T09:16:38.995Z,2.33
2023-11-27T09:19:45.538Z,2.20
2023-11-27T09:22:49.487Z,3.78
2023-11-27T09:25:53.996Z,2.90
2023-11-27T09:28:57.522Z,3.83
2023-11-27T09:32:04.706Z,3.05
2023-11-27T09:35:14.209Z,4.65
2023-11-27T09:38:18.412Z,3.20
2023-11-27T09:41:21.987Z,4.03
2023-11-27T09:44:26.803Z,3.67
2023-11-27T09:47:33.115Z,3.70
2023-11-27T09:50:38.829Z,3.60
2023-11-27T09:53:53.144Z,5.10
2023-11-27T09:56:58.082Z,2.72
2023-11-27T10:00:02.654Z,2.97
2023-11-27T10:03:08.769Z,2.03
2023-11-27T10:06:13.888Z,4.50
2023-11-27T10:09:19.704Z,3.75
2023-11-27T10:12:29.532Z,3.28
2023-11-27T10:15:33.346Z,3.92
2023-11-27T10:18:37.487Z,3.28
2023-11-27T10:21:43.217Z,3.60
2023-11-27T10:24:48.609Z,3.58
2023-11-27T10:27:59.025Z,3.30
2023-11-27T10:31:02.782Z,3.67
2023-11-27T10:34:07.194Z,3.10
2023-11-27T10:37:14.554Z,3.15
2023-11-27T10:40:22.064Z,3.58
2023-11-27T10:43:26.739Z,3.20
2023-11-27T10:46:32.426Z,3.22
2023-11-27T10:49:40.395Z,3.78
2023-11-27T10:52:48.541Z,3.17
2023-11-27T10:55:55.984Z,3.10
2023-11-27T14:33:11.573Z,4.50
2023-11-27T14:36:16.591Z,4.18
2023-11-27T14:39:22.996Z,4.00
2023-11-27T14:42:26.880Z,3.80
2023-11-27T14:45:43.375Z,4.07
2023-11-27T14:48:48.658Z,4.22
2023-11-27T14:51:52.503Z,4.00
2023-11-27T14:54:56.440Z,4.30
2023-11-27T14:58:00.137Z,4.28
2023-11-27T15:01:08.333Z,4.20
2023-11-27T15:04:15.462Z,4.03
2023-11-27T15:07:19.307Z,4.65
2023-11-27T15:10:24.073Z,4.90
2023-11-27T15:13:28.722Z,4.93
2023-11-27T15:16:32.558Z,4.43
2023-11-27T15:19:37.994Z,5.13
2023-11-27T15:22:41.640Z,5.43
2023-11-27T15:25:46.594Z,4.97
2023-11-27T15:28:53.232Z,5.00
2023-11-27T15:31:57.047Z,4.97
2023-11-27T15:35:02.341Z,5.55
2023-11-27T15:38:06.785Z,5.57
2023-11-27T15:41:12.082Z,6.53
2023-11-27T15:44:15.921Z,6.70
2023-11-27T15:47:21.242Z,6.17
2023-11-27T15:50:31.186Z,7.50
2023-11-27T15:53:35.021Z,8.52
2023-11-27T15:56:38.740Z,7.73
2023-11-27T15:59:44.451Z,13.50
2023-11-27T16:02:50.550Z,24.75
2023-11-27T16:05:55.798Z,25.40
2023-11-27T16:08:59.550Z,26.33
2023-11-27T16:12:04.192Z,27.00
2023-11-27T16:15:11.637Z,25.90
2023-11-27T16:18:18.348Z,25.73
2023-11-27T16:21:24.303Z,23.65
2023-11-27T16:24:27.844Z,25.88
2023-11-27T16:27:32.063Z,27.40
2023-11-27T16:30:37.031Z,29.02
2023-11-27T16:33:41.668Z,23.17
2023-11-27T16:36:47.688Z,20.17
2023-11-27T16:39:52.522Z,17.00
2023-11-27T16:42:57.177Z,17.02
2023-11-27T16:46:01.479Z,18.23
2023-11-27T16:49:05.091Z,18.90
2023-11-27T16:52:12.059Z,17.83
2023-11-27T16:55:20.097Z,16.58
2023-11-27T16:58:26.056Z,17.90
2023-11-27T17:01:30.766Z,16.60
2023-11-27T17:04:35.262Z,15.88
2023-11-27T17:07:41.676Z,14.73
2023-11-27T17:10:51.104Z,13.95
2023-11-27T17:13:55.004Z,12.75
2023-11-27T17:16:59.602Z,12.77
2023-11-27T17:20:04.219Z,14.73
2023-11-27T17:23:09.729Z,13.25
2023-11-27T17:26:13.755Z,12.30
2023-11-27T17:29:18.745Z,12.67
2023-11-27T17:32:23.413Z,12.55
2023-11-27T17:35:27.224Z,12.73
2023-11-27T17:38:35.879Z,12.85
2023-11-27T17:41:39.659Z,13.27
2023-11-27T17:44:43.197Z,12.85
2023-11-27T17:47:50.225Z,14.18
2023-11-27T17:50:54.034Z,14.37
2023-11-27T17:53:59.325Z,14.02
2023-11-27T17:57:02.745Z,14.68
2023-11-27T18:00:12.416Z,14.17
2023-11-27T18:03:18.808Z,13.55
2023-11-27T18:06:22.716Z,14.02
2023-11-27T18:09:27.721Z,13.88
2023-11-27T18:12:31.655Z,13.80
2023-11-27T18:15:35.268Z,13.43
2023-11-27T18:18:39.066Z,14.25
2023-11-27T18:21:43.802Z,13.30
2023-11-27T18:24:49.531Z,13.50
2023-11-27T18:27:56.720Z,12.65
2023-11-27T18:31:00.796Z,12.13
2023-11-27T18:34:05.681Z,11.98
2023-11-27T18:37:10.826Z,11.57
2023-11-27T18:40:19.157Z,12.80
2023-11-27T18:43:23.867Z,12.65
2023-11-27T18:46:27.645Z,11.88
2023-11-27T18:49:32.983Z,12.18
2023-11-27T18:52:38.157Z,11.63
2023-11-27T18:55:44.538Z,12.02
2023-11-27T18:58:48.367Z,13.35
2023-11-27T19:01:52.442Z,12.00
2023-11-27T19:04:56.188Z,12.13
2023-11-27T19:08:00.164Z,11.68
2023-11-27T19:14:09.414Z,14.32
2023-11-27T19:17:13.443Z,13.20
2023-11-27T19:20:17.513Z,14.85
2023-11-27T19:23:22.676Z,13.93
2023-11-27T19:26:28.210Z,14.10
2023-11-27T19:29:32.075Z,13.23
2023-11-27T19:32:35.905Z,13.43
2023-11-27T19:35:40.960Z,14.07
2023-11-27T19:38:45.018Z,14.03
2023-11-27T19:41:53.997Z,13.45
2023-11-27T19:44:58.727Z,13.65
2023-11-27T19:48:03.342Z,15.15
2023-11-27T19:51:08.377Z,14.98
2023-11-27T19:54:16.426Z,12.40
2023-11-27T19:57:21.825Z,14.93
2023-11-27T20:00:25.390Z,13.98
2023-11-27T20:03:29.201Z,14.10
2023-11-27T20:06:32.851Z,15.48
2023-11-27T20:09:36.657Z,15.93
2023-11-27T20:12:42.413Z,14.80
2023-11-27T20:15:46.476Z,15.35
2023-11-27T20:18:50.309Z,15.02
2023-11-27T20:21:55.154Z,15.07
2023-11-27T20:28:04.742Z,13.77
2023-11-27T20:31:12.547Z,15.85
2023-11-27T20:34:23.059Z,14.77
2023-11-27T20:37:26.721Z,14.38
2023-11-27T20:40:30.518Z,14.82
2023-11-27T20:43:35.544Z,14.10
2023-11-27T20:46:39.876Z,15.75
2023-11-27T20:49:43.617Z,15.68
2023-11-27T20:52:47.843Z,16.63
2023-11-27T20:55:52.096Z,17.77
2023-11-27T20:58:57.519Z,19.27
2023-11-27T21:02:03.366Z,16.60
2023-11-27T21:05:09.383Z,16.30
2023-11-27T21:08:13.272Z,17.70
2023-11-27T21:11:19.203Z,16.02
2023-11-27T21:14:24.928Z,15.63
2023-11-27T21:17:28.926Z,13.85
2023-11-27T21:20:32.981Z,14.98
2023-11-27T21:23:37.131Z,13.15
2023-11-27T21:26:40.893Z,13.33
2023-11-27T21:29:46.194Z,13.48
2023-11-27T21:32:51.506Z,13.50
2023-11-27T21:35:57.335Z,12.67
2023-11-27T21:39:05.006Z,11.15
2023-11-27T21:42:09.164Z,13.85
2023-11-27T21:45:14.713Z,12.07
2023-11-27T21:48:18.808Z,10.93
2023-11-27T21:51:22.708Z,11.32
2023-11-27T21:54:26.655Z,9.55
2023-11-27T21:57:30.395Z,14.97
2023-11-27T22:00:35.724Z,11.40
2023-11-27T22:03:40.310Z,10.25
2023-11-27T22:06:44.213Z,10.07
2023-11-27T22:09:52.504Z,9.25
2023-11-27T22:12:57.543Z,10.45
2023-11-27T22:16:03.053Z,9.77
2023-11-27T22:19:07.228Z,9.55
2023-11-27T22:22:10.756Z,9.55
2023-11-27T22:25:14.861Z,9.80
2023-11-27T22:28:18.851Z,9.93
2023-11-27T22:31:24.937Z,10.27
2023-11-27T22:34:28.603Z,11.02
2023-11-27T22:37:32.824Z,11.90
2023-11-27T22:40:36.749Z,11.77
2023-11-27T22:43:40.541Z,11.23
2023-11-27T22:46:45.481Z,11.00
2023-11-27T22:49:49.290Z,11.50
2023-11-27T22:52:53.044Z,12.13
2023-11-27T22:55:57.184Z,13.10
2023-11-27T22:59:11.135Z,12.43
2023-11-27T23:02:21.873Z,13.63
2023-11-27T23:05:26.147Z,11.68
2023-11-27T23:08:30.000Z,12.73
2023-11-27T23:11:33.484Z,11.85
2023-11-27T23:14:37.506Z,13.35
2023-11-27T23:17:43.805Z,11.18
2023-11-27T23:20:47.580Z,12.15
2023-11-27T23:23:51.087Z,14.45
2023-11-27T23:26:55.493Z,13.52
2023-11-27T23:29:58.994Z,13.07
2023-11-27T23:33:05.185Z,13.38
2023-11-27T23:36:12.821Z,12.70
2023-11-27T23:39:16.630Z,13.40
2023-11-27T23:42:20.178Z,14.20
2023-11-27T23:45:23.972Z,12.93
2023-11-27T23:48:29.607Z,13.07
2023-11-27T23:51:33.595Z,12.82
2023-11-27T23:54:37.089Z,13.00
2023-11-27T23:57:41.677Z,11.18
